Time;durP1;ratioP1;P1;durP2;ratioP2;P2;SDS_P1;SDS_P2;PMS_P1;PMS_P2;Temp;Humidity;BMP_temperature;BMP_pressure;BME280_temperature;BME280_humidity;BME280_pressure;Samples;Min_cycle;Max_cycle;Signal;HPM_P1;HPM_P2
2022/11/19 00:00:52;;;;;;;14.57;12.20;;;;;;;12.26;63.35;100035.78;4996081;28;20386;-77
2022/11/19 00:03:20;;;;;;;14.80;12.03;;;;;;;12.29;63.46;100035.41;4974401;28;20404;-77
2022/11/19 00:05:48;;;;;;;14.07;11.17;;;;;;;12.32;63.04;100037.66;4961280;28;20801;-77
2022/11/19 00:08:17;;;;;;;14.82;11.90;;;;;;;12.37;63.01;100032.59;4981410;28;20392;-78
2022/11/19 00:10:44;;;;;;;13.50;10.52;;;;;;;12.35;63.59;100031.13;4980099;28;20391;-78
2022/11/19 00:13:12;;;;;;;10.27;9.18;;;;;;;12.36;63.63;100030.13;4977413;28;20415;-78
2022/11/19 00:15:38;;;;;;;11.15;8.85;;;;;;;12.39;63.88;100033.19;4957985;28;20471;-77
2022/11/19 00:18:04;;;;;;;10.13;7.80;;;;;;;12.47;63.74;100036.69;4979169;28;20806;-78
2022/11/19 00:20:31;;;;;;;11.02;7.90;;;;;;;12.46;63.87;100040.38;4980146;28;20760;-77
2022/11/19 00:22:57;;;;;;;8.68;7.43;;;;;;;12.50;64.06;100044.28;4978588;28;20392;-77
2022/11/19 00:25:25;;;;;;;8.80;7.63;;;;;;;12.51;63.76;100054.69;4978748;28;20415;-78
2022/11/19 00:27:51;;;;;;;7.95;7.15;;;;;;;12.55;63.72;100063.09;4978271;28;20387;-78
2022/11/19 00:30:18;;;;;;;9.38;7.18;;;;;;;12.60;63.36;100064.16;4978792;28;20394;-78
2022/11/19 00:32:44;;;;;;;8.57;6.93;;;;;;;12.65;63.25;100076.03;4978914;28;20403;-77
2022/11/19 00:35:10;;;;;;;7.95;7.00;;;;;;;12.58;62.93;100076.00;4978931;28;20451;-77
2022/11/19 00:37:36;;;;;;;10.53;7.97;;;;;;;12.53;63.16;100073.13;4978420;28;20388;-78
2022/11/19 00:40:02;;;;;;;8.57;7.10;;;;;;;12.52;63.25;100074.16;4979184;28;20402;-78
2022/11/19 00:42:28;;;;;;;7.63;6.83;;;;;;;12.52;63.09;100079.47;4977633;28;20387;-78
2022/11/19 00:44:53;;;;;;;7.80;6.73;;;;;;;12.65;62.88;100100.78;4978824;28;20395;-78
2022/11/19 00:47:19;;;;;;;8.63;7.40;;;;;;;12.74;62.39;100101.44;4978386;28;20379;-78
2022/11/19 00:49:44;;;;;;;8.67;6.80;;;;;;;12.81;62.12;100110.25;4978153;28;20415;-78
2022/11/19 00:52:10;;;;;;;9.07;7.13;;;;;;;12.87;61.89;100124.59;4977311;28;20403;-78
2022/11/19 00:54:36;;;;;;;9.95;7.93;;;;;;;12.86;61.82;100122.97;4978188;28;20459;-77
2022/11/19 00:57:01;;;;;;;9.53;8.10;;;;;;;12.72;61.98;100120.25;4978263;28;20387;-78
2022/11/19 00:59:27;;;;;;;9.37;8.37;;;;;;;12.58;61.94;100130.00;4977634;28;20383;-78
2022/11/19 01:01:52;;;;;;;9.25;7.93;;;;;;;12.64;61.81;100141.69;4978540;28;20379;-78
2022/11/19 01:04:18;;;;;;;9.53;7.23;;;;;;;12.58;61.72;100139.81;4998842;28;20418;-77
2022/11/19 01:06:43;;;;;;;8.00;6.95;;;;;;;12.63;61.62;100156.81;5000233;28;20389;-77
2022/11/19 01:09:09;;;;;;;9.40;6.73;;;;;;;12.67;61.87;100140.47;4983840;28;20417;-78
2022/11/19 01:11:36;;;;;;;7.43;6.60;;;;;;;12.79;61.70;100145.03;5000991;28;20850;-78
2022/11/19 01:14:03;;;;;;;6.80;6.10;;;;;;;12.80;61.45;100151.16;5000483;28;20879;-78
2022/11/19 01:16:32;;;;;;;7.25;6.20;;;;;;;12.85;61.49;100155.88;5000852;28;20385;-78
2022/11/19 01:18:58;;;;;;;7.57;6.77;;;;;;;12.85;61.28;100172.66;5000505;28;20840;-78
2022/11/19 01:21:27;;;;;;;6.63;5.80;;;;;;;12.73;61.33;100166.25;5000753;28;20863;-78
2022/11/19 01:23:53;;;;;;;6.90;5.45;;;;;;;12.75;61.57;100165.06;5001304;28;20389;-78
2022/11/19 01:26:19;;;;;;;6.07;5.47;;;;;;;12.75;61.17;100170.38;5001899;28;20381;-77
2022/11/19 01:28:45;;;;;;;7.00;5.53;;;;;;;12.84;61.25;100184.34;4984699;28;20393;-78
2022/11/19 01:31:12;;;;;;;6.10;5.50;;;;;;;12.76;61.17;100181.84;5002545;28;20409;-78
2022/11/19 01:33:38;;;;;;;7.53;5.32;;;;;;;12.66;61.15;100174.22;4985875;28;20429;-78
2022/11/19 01:36:10;;;;;;;6.40;5.60;;;;;;;12.53;61.49;100179.47;5002195;28;20385;-77
2022/11/19 01:38:36;;;;;;;6.90;5.07;;;;;;;12.47;61.54;100175.75;4983773;28;20502;-78
2022/11/19 01:41:02;;;;;;;6.70;5.20;;;;;;;12.47;61.38;100181.06;4998211;28;20397;-78
2022/11/19 01:43:49;;;;;;;7.50;5.20;;;;;;;12.46;61.61;100181.25;5002140;28;20382;-78
2022/11/19 01:46:21;;;;;;;6.20;5.35;;;;;;;12.49;61.27;100189.66;5000849;28;20374;-78
2022/11/19 01:48:50;;;;;;;5.90;4.85;;;;;;;12.41;61.39;100192.50;4997593;28;20401;-78
2022/11/19 01:51:18;;;;;;;5.57;4.97;;;;;;;12.41;61.37;100201.28;4997055;28;20396;-78
2022/11/19 01:53:46;;;;;;;5.45;4.93;;;;;;;12.36;61.19;100206.34;4997287;28;20460;-78
2022/11/19 01:56:12;;;;;;;5.77;5.17;;;;;;;12.40;61.14;100220.06;4997402;28;20456;-78
2022/11/19 01:58:46;;;;;;;6.30;4.90;;;;;;;12.30;61.58;100211.59;4999866;28;20417;-78
2022/11/19 02:01:13;;;;;;;5.43;4.90;;;;;;;12.37;61.20;100212.47;4996768;28;20397;-78
2022/11/19 02:03:40;;;;;;;5.38;4.88;;;;;;;12.36;61.18;100209.00;4995216;28;20425;-78
2022/11/19 02:06:06;;;;;;;5.68;4.55;;;;;;;12.38;60.88;100208.81;4993228;28;20413;-78
2022/11/19 02:08:37;;;;;;;6.28;4.25;;;;;;;12.40;61.10;100210.25;4994888;28;20541;-78
2022/11/19 02:11:24;;;;;;;5.18;4.30;;;;;;;12.43;61.12;100220.50;4994663;28;20735;-78
2022/11/19 02:14:07;;;;;;;5.00;4.43;;;;;;;12.50;60.80;100217.91;4994477;28;20397;-78
2022/11/19 02:16:48;;;;;;;5.03;3.80;;;;;;;12.49;60.69;100224.22;4994700;28;20477;-77
2022/11/19 02:19:55;;;;;;;4.75;3.60;;;;;;;12.54;61.06;100221.00;4993729;28;20389;-77
2022/11/19 02:22:46;;;;;;;3.80;3.42;;;;;;;12.61;60.85;100221.84;4976896;28;20398;-78
2022/11/19 02:25:11;;;;;;;4.20;3.55;;;;;;;12.54;60.11;100226.31;4993563;28;20381;-78
2022/11/19 02:27:55;;;;;;;4.53;4.00;;;;;;;12.54;60.54;100221.81;4993442;28;20483;-78
2022/11/19 02:30:21;;;;;;;3.88;3.42;;;;;;;12.54;60.03;100226.31;4992428;28;20394;-78
2022/11/19 02:32:49;;;;;;;4.30;3.72;;;;;;;12.45;60.16;100236.25;4993279;28;20428;-78
2022/11/19 02:35:43;;;;;;;4.13;3.72;;;;;;;12.37;60.10;100245.22;4993298;28;20464;-78
2022/11/19 02:38:26;;;;;;;4.00;3.60;;;;;;;12.44;60.14;100261.19;4994565;28;20885;-78
2022/11/19 02:40:59;;;;;;;5.50;3.97;;;;;;;12.50;60.34;100271.06;4998006;28;20385;-78
2022/11/19 02:43:40;;;;;;;4.60;4.20;;;;;;;12.61;60.57;100280.34;4996887;28;20389;-78
2022/11/19 02:46:12;;;;;;;4.78;3.65;;;;;;;12.58;60.14;100280.72;4997488;28;20382;-79
2022/11/19 02:48:48;;;;;;;4.15;3.75;;;;;;;12.60;60.36;100289.31;4994181;28;20850;-79
2022/11/19 02:51:15;;;;;;;4.65;3.88;;;;;;;12.53;59.88;100280.47;4996012;28;20417;-79
2022/11/19 02:53:40;;;;;;;6.60;3.75;;;;;;;12.48;60.13;100294.38;4979700;28;20476;-78
2022/11/19 02:56:45;;;;;;;3.97;3.53;;;;;;;12.56;60.12;100301.38;4997708;28;20393;-77
2022/11/19 03:04:43;;;;;;;4.50;3.92;;;;;;;12.40;58.92;100313.91;4997281;28;20401;-79
2022/11/19 03:07:15;;;;;;;8.57;7.13;;;;;;;12.37;58.94;100324.13;4996936;28;20393;-79
2022/11/19 03:09:45;;;;;;;5.57;4.85;;;;;;;12.24;59.00;100325.66;4980277;28;20513;-79
2022/11/19 03:12:21;;;;;;;4.32;3.67;;;;;;;12.20;59.16;100326.22;4998015;28;20409;-78
2022/11/19 03:18:22;;;;;;;4.63;3.97;;;;;;;12.15;58.90;100341.91;4995965;28;20421;-79
2022/11/19 03:21:03;;;;;;;3.97;3.50;;;;;;;12.19;58.78;100351.97;4967512;28;20409;-79
2022/11/19 03:23:35;;;;;;;4.43;4.03;;;;;;;12.15;58.94;100358.66;4996369;28;20385;-79
2022/11/19 03:26:09;;;;;;;3.80;3.50;;;;;;;12.09;59.02;100363.94;4994495;28;20386;-78
2022/11/19 03:28:37;;;;;;;4.17;3.77;;;;;;;12.10;58.81;100354.94;4994153;28;20378;-79
2022/11/19 03:31:05;;;;;;;4.00;3.60;;;;;;;12.07;59.13;100366.78;4995975;28;20395;-78
2022/11/19 03:33:44;;;;;;;4.22;3.83;;;;;;;12.09;59.09;100372.72;4995590;28;20489;-79
2022/11/19 03:36:37;;;;;;;4.55;4.15;;;;;;;12.10;58.75;100378.84;4996496;28;20382;-79
2022/11/19 03:39:08;;;;;;;8.10;6.40;;;;;;;12.02;59.13;100383.25;4995679;28;20386;-79
2022/11/19 03:41:36;;;;;;;8.45;5.85;;;;;;;12.00;59.12;100374.66;4994773;28;20377;-79
2022/11/19 03:44:22;;;;;;;5.28;4.75;;;;;;;11.99;59.31;100386.31;4995653;28;20385;-79
2022/11/19 03:46:54;;;;;;;9.45;6.90;;;;;;;11.97;59.30;100393.63;4994707;28;20409;-77
2022/11/19 03:49:24;;;;;;;13.20;8.18;;;;;;;11.97;59.30;100396.28;4995878;28;20812;-79
2022/11/19 03:51:56;;;;;;;28.80;17.50;;;;;;;12.16;59.01;100408.16;4995307;28;20429;-79
2022/11/19 03:54:21;;;;;;;8.63;5.85;;;;;;;12.09;58.68;100407.25;4994602;28;20941;-78
2022/11/19 03:56:48;;;;;;;5.10;4.53;;;;;;;12.02;58.96;100417.78;4994387;28;20390;-78
2022/11/19 03:59:15;;;;;;;5.30;4.18;;;;;;;12.01;59.06;100417.97;4994370;28;20406;-78
2022/11/19 04:01:43;;;;;;;5.60;4.90;;;;;;;12.09;58.76;100428.50;4992556;28;20385;-79
2022/11/19 04:06:53;;;;;;;45.63;42.42;;;;;;;12.50;57.73;100443.06;4993090;28;20944;-77
2022/11/19 04:09:18;;;;;;;19.03;17.53;;;;;;;12.63;57.49;100449.31;4993420;28;20444;-79
2022/11/19 04:11:44;;;;;;;6.83;5.40;;;;;;;12.66;57.09;100449.94;4993347;28;20393;-78
2022/11/19 04:14:09;;;;;;;10.77;9.87;;;;;;;12.72;57.01;100459.84;4992279;28;20388;-78
2022/11/19 04:16:35;;;;;;;6.50;5.20;;;;;;;12.68;56.74;100466.56;4992408;28;20388;-78
2022/11/19 04:19:00;;;;;;;5.87;5.27;;;;;;;12.57;57.12;100465.22;4991836;28;20418;-78
2022/11/19 04:21:26;;;;;;;5.30;4.57;;;;;;;12.38;57.47;100464.00;4992528;28;20397;-76
2022/11/19 04:23:51;;;;;;;5.07;4.40;;;;;;;12.29;57.75;100465.94;4992173;28;20400;-76
2022/11/19 04:26:17;;;;;;;5.70;4.90;;;;;;;12.38;57.34;100479.94;4992372;28;20390;-77
2022/11/19 04:28:42;;;;;;;5.30;4.80;;;;;;;12.30;57.62;100474.72;4992330;28;20385;-77
2022/11/19 04:31:07;;;;;;;5.40;4.90;;;;;;;12.03;57.98;100458.50;4992271;28;21132;-79
2022/11/19 04:33:33;;;;;;;6.73;5.80;;;;;;;12.05;57.97;100475.06;4976746;28;20883;-79
2022/11/19 04:35:58;;;;;;;5.47;4.97;;;;;;;12.12;57.79;100483.09;4993576;28;20459;-77
2022/11/19 04:38:24;;;;;;;4.73;4.23;;;;;;;12.10;57.51;100485.13;4996127;28;20386;-77
2022/11/19 04:40:49;;;;;;;4.75;4.35;;;;;;;12.02;57.62;100492.19;4995893;28;20381;-77
2022/11/19 04:43:15;;;;;;;5.03;4.53;;;;;;;12.08;57.59;100487.13;4996063;28;20370;-76
2022/11/19 04:45:40;;;;;;;4.77;4.37;;;;;;;12.14;57.41;100505.00;4978673;28;20473;-78
2022/11/19 04:48:06;;;;;;;5.27;4.67;;;;;;;12.17;57.15;100509.94;4996654;28;20393;-77
2022/11/19 04:50:31;;;;;;;11.07;10.17;;;;;;;12.28;57.08;100511.28;4996325;28;20484;-78
2022/11/19 04:52:58;;;;;;;15.77;14.60;;;;;;;12.40;56.55;100523.09;4978055;28;20533;-81
2022/11/19 04:55:23;;;;;;;6.95;6.32;;;;;;;12.39;56.79;100524.94;4995143;28;20417;-78
2022/11/19 04:57:50;;;;;;;5.53;5.03;;;;;;;12.33;56.62;100519.53;4995426;28;20468;-78
2022/11/19 05:00:16;;;;;;;6.60;5.80;;;;;;;12.25;56.85;100523.13;4976326;28;20464;-77
2022/11/19 05:02:43;;;;;;;6.18;5.47;;;;;;;12.21;56.82;100516.56;4994657;28;21069;-77
2022/11/19 05:05:08;;;;;;;6.70;5.70;;;;;;;12.24;56.59;100524.13;4978042;28;20382;-77
2022/11/19 05:07:34;;;;;;;6.30;5.70;;;;;;;12.25;56.48;100531.09;4994562;28;20775;-79
2022/11/19 05:09:59;;;;;;;6.47;5.87;;;;;;;12.12;56.74;100529.13;4995840;28;20389;-78
2022/11/19 05:12:25;;;;;;;5.97;5.38;;;;;;;12.07;56.92;100541.31;4996976;28;20406;-78
2022/11/19 05:14:50;;;;;;;5.47;4.97;;;;;;;12.06;56.92;100556.41;4994607;28;20406;-78
2022/11/19 05:17:16;;;;;;;5.30;4.60;;;;;;;11.96;57.11;100553.22;4995660;28;20542;-78
2022/11/19 05:19:41;;;;;;;5.23;4.73;;;;;;;11.89;57.14;100547.75;4996563;28;20830;-77
2022/11/19 05:22:07;;;;;;;4.30;3.90;;;;;;;11.83;57.11;100546.66;4995220;28;20775;-78
2022/11/19 05:24:32;;;;;;;5.22;3.90;;;;;;;11.74;57.06;100557.53;4995468;28;20456;-78
2022/11/19 05:26:58;;;;;;;4.60;4.20;;;;;;;11.75;57.35;100567.16;4994331;28;20466;-77
2022/11/19 05:29:23;;;;;;;5.10;4.60;;;;;;;11.81;57.20;100575.25;4995281;28;20418;-78
2022/11/19 05:31:49;;;;;;;5.00;4.50;;;;;;;11.80;57.25;100567.47;4978369;28;20406;-78
2022/11/19 05:34:14;;;;;;;6.03;5.43;;;;;;;11.80;57.22;100583.38;4995724;28;20386;-79
2022/11/19 05:36:39;;;;;;;4.57;4.17;;;;;;;11.82;57.03;100590.16;4994871;28;21142;-78
2022/11/19 05:39:05;;;;;;;6.53;4.77;;;;;;;11.81;57.09;100593.00;4994728;28;20468;-78
2022/11/19 05:41:30;;;;;;;7.87;6.70;;;;;;;11.78;57.23;100586.22;4977670;28;20417;-78
2022/11/19 05:43:56;;;;;;;10.50;8.17;;;;;;;11.83;56.95;100591.81;4994494;28;20386;-78
2022/11/19 05:46:21;;;;;;;9.98;8.38;;;;;;;11.82;57.00;100586.69;4995286;28;20409;-77
2022/11/19 05:48:47;;;;;;;8.40;7.33;;;;;;;11.89;57.06;100587.59;4994774;28;20397;-78
2022/11/19 05:51:14;;;;;;;7.60;6.82;;;;;;;11.94;56.92;100603.00;4994794;28;20786;-78
2022/11/19 05:53:39;;;;;;;7.80;6.60;;;;;;;12.00;56.67;100589.03;4993877;28;20398;-78
2022/11/19 05:56:05;;;;;;;8.27;6.20;;;;;;;12.10;56.62;100594.91;4994891;28;20396;-78
2022/11/19 05:58:31;;;;;;;6.05;5.30;;;;;;;12.14;56.32;100606.00;4994544;28;20390;-78
2022/11/19 06:00:58;;;;;;;5.73;5.13;;;;;;;12.19;56.47;100606.25;4994522;28;20452;-78
2022/11/19 06:03:23;;;;;;;6.57;5.88;;;;;;;12.24;56.30;100607.38;4995668;28;20417;-79
2022/11/19 06:05:49;;;;;;;5.60;5.10;;;;;;;12.27;56.32;100611.47;4994735;28;20405;-79
2022/11/19 06:08:14;;;;;;;4.90;4.40;;;;;;;12.34;56.29;100625.69;4994956;28;20397;-79
2022/11/19 06:10:40;;;;;;;4.90;4.50;;;;;;;12.33;56.23;100624.03;4994622;28;20934;-79
2022/11/19 06:13:05;;;;;;;5.85;4.75;;;;;;;12.41;56.24;100633.75;4994378;28;20420;-78
2022/11/19 06:15:31;;;;;;;4.60;4.20;;;;;;;12.38;55.77;100634.13;4995146;28;20404;-78
2022/11/19 06:17:56;;;;;;;4.10;3.70;;;;;;;12.30;56.14;100634.19;4994192;28;20425;-79
2022/11/19 06:20:22;;;;;;;4.90;4.43;;;;;;;12.22;56.16;100645.75;4994700;28;20464;-79
2022/11/19 06:22:47;;;;;;;5.63;4.38;;;;;;;12.16;56.32;100655.28;4996715;28;20373;-79
2022/11/19 06:25:13;;;;;;;5.00;4.30;;;;;;;12.20;56.54;100651.25;4996554;28;20448;-80
2022/11/19 06:27:38;;;;;;;4.13;3.70;;;;;;;12.21;56.18;100655.56;4995697;28;20384;-79
2022/11/19 06:30:05;;;;;;;4.18;3.78;;;;;;;12.24;56.09;100670.31;4994092;28;20393;-77
2022/11/19 06:32:31;;;;;;;4.05;3.75;;;;;;;12.33;56.30;100673.72;4993866;28;20417;-77
2022/11/19 06:34:56;;;;;;;7.50;6.80;;;;;;;12.47;56.58;100666.75;4994125;28;20393;-78
2022/11/19 06:37:22;;;;;;;18.50;16.52;;;;;;;12.49;56.47;100668.22;4995173;28;20381;-77
2022/11/19 06:39:47;;;;;;;16.67;14.87;;;;;;;12.42;56.52;100677.91;4992993;28;20382;-78
2022/11/19 06:44:57;;;;;;;15.25;13.75;;;;;;;12.11;56.89;100678.09;4994396;28;20916;-79
2022/11/19 06:47:22;;;;;;;13.23;10.95;;;;;;;12.18;56.93;100677.16;4995224;28;20393;-79
2022/11/19 06:49:48;;;;;;;8.67;7.43;;;;;;;12.29;56.71;100685.72;4994001;28;20759;-76
2022/11/19 06:52:13;;;;;;;7.68;6.45;;;;;;;12.37;56.59;100688.28;4993686;28;20420;-79
2022/11/19 06:54:39;;;;;;;6.03;5.43;;;;;;;12.43;56.43;100691.03;4993789;28;20389;-78
2022/11/19 06:57:06;;;;;;;5.38;4.68;;;;;;;12.54;56.05;100704.91;4993097;28;20922;-78
2022/11/19 06:59:33;;;;;;;5.72;4.53;;;;;;;12.56;56.01;100708.19;4975761;28;20958;-78
2022/11/19 07:01:59;;;;;;;5.50;4.80;;;;;;;12.61;55.93;100713.78;4992777;28;20382;-79
2022/11/19 07:04:24;;;;;;;5.15;4.40;;;;;;;12.73;56.00;100725.63;4992410;28;20420;-79
2022/11/19 07:06:50;;;;;;;5.07;4.57;;;;;;;12.81;55.99;100736.16;4992015;28;20905;-80
2022/11/19 07:09:16;;;;;;;8.68;4.75;;;;;;;12.88;55.86;100735.44;4991884;28;20392;-80
2022/11/19 07:11:42;;;;;;;6.68;4.53;;;;;;;12.92;55.63;100736.72;4984786;28;20389;-79
2022/11/19 07:14:07;;;;;;;5.35;4.38;;;;;;;12.97;55.77;100740.47;4993690;28;20393;-81
2022/11/19 07:16:34;;;;;;;5.40;4.60;;;;;;;13.01;55.74;100748.91;4992258;28;20374;-80
2022/11/19 07:19:03;;;;;;;4.80;4.30;;;;;;;13.15;55.62;100744.56;4993080;28;20374;-78
2022/11/19 07:21:30;;;;;;;6.47;4.95;;;;;;;13.22;55.63;100753.47;4994485;28;20374;-78
2022/11/19 07:23:57;;;;;;;5.07;4.57;;;;;;;13.31;55.52;100749.72;4994873;28;20487;-79
2022/11/19 07:26:23;;;;;;;5.90;4.22;;;;;;;13.37;55.68;100735.63;4994330;28;20385;-79
2022/11/19 07:28:48;;;;;;;5.60;4.80;;;;;;;13.49;56.06;100733.31;4994296;28;20439;-81
2022/11/19 07:31:13;;;;;;;4.57;4.10;;;;;;;13.54;55.48;100738.91;4995570;28;20385;-79
2022/11/19 07:33:39;;;;;;;4.50;3.97;;;;;;;13.53;55.17;100739.91;4994503;28;20478;-79
2022/11/19 07:36:07;;;;;;;4.40;4.00;;;;;;;13.51;55.00;100733.13;4995562;28;20378;-79
2022/11/19 07:38:33;;;;;;;4.95;4.45;;;;;;;13.61;55.36;100744.28;4975505;28;20382;-80
2022/11/19 07:40:59;;;;;;;4.60;4.20;;;;;;;13.72;54.95;100756.28;4993122;28;21195;-81
2022/11/19 07:43:24;;;;;;;5.00;4.50;;;;;;;13.83;54.86;100755.81;4992840;28;20449;-78
2022/11/19 07:45:50;;;;;;;5.70;5.10;;;;;;;13.88;54.85;100766.72;4992649;28;20382;-78
2022/11/19 07:48:15;;;;;;;7.68;6.03;;;;;;;13.91;54.64;100762.84;4968153;28;20414;-78
2022/11/19 07:50:48;;;;;;;7.47;5.97;;;;;;;13.94;54.90;100760.63;4992427;28;20386;-79
2022/11/19 07:53:13;;;;;;;7.88;5.88;;;;;;;14.01;54.59;100767.84;4993126;28;20475;-78
2022/11/19 07:55:39;;;;;;;8.27;5.90;;;;;;;14.01;54.55;100766.00;4993192;28;20386;-77
2022/11/19 07:58:04;;;;;;;8.32;6.70;;;;;;;14.10;54.58;100767.53;4993095;28;20406;-79
2022/11/19 08:00:30;;;;;;;8.50;6.73;;;;;;;14.17;54.56;100762.25;4996933;28;20417;-79
2022/11/19 08:02:55;;;;;;;7.97;6.07;;;;;;;14.21;54.62;100758.19;4995089;28;20402;-80
2022/11/19 08:05:20;;;;;;;8.50;6.50;;;;;;;14.28;54.39;100766.25;4976605;28;20398;-79
2022/11/19 08:07:46;;;;;;;9.10;6.07;;;;;;;14.31;54.38;100764.00;4992833;28;20520;-79
2022/11/19 08:10:12;;;;;;;6.07;4.97;;;;;;;14.40;54.08;100754.00;4993753;28;20442;-78
2022/11/19 08:12:37;;;;;;;6.97;4.80;;;;;;;14.40;53.98;100754.00;4997016;28;20436;-80
2022/11/19 08:15:03;;;;;;;6.07;5.10;;;;;;;14.50;53.91;100759.00;4996302;28;20393;-78
2022/11/19 08:20:16;;;;;;;6.70;4.68;;;;;;;14.61;53.12;100758.50;5000865;28;20498;-79
2022/11/19 08:22:41;;;;;;;5.18;4.00;;;;;;;14.59;52.60;100760.53;4997567;28;20374;-79
2022/11/19 08:25:07;;;;;;;4.78;3.85;;;;;;;14.65;52.64;100758.94;4995768;28;20392;-79
2022/11/19 08:27:33;;;;;;;6.30;4.50;;;;;;;14.77;52.68;100765.38;4994551;28;20971;-80
2022/11/19 08:29:59;;;;;;;4.05;3.65;;;;;;;14.72;52.18;100765.13;4994242;28;20405;-79
2022/11/19 08:32:24;;;;;;;3.50;3.20;;;;;;;14.63;52.46;100767.13;4996083;28;20413;-79
2022/11/19 08:34:50;;;;;;;3.93;3.33;;;;;;;14.66;52.33;100768.59;4996279;28;20385;-78
2022/11/19 08:37:15;;;;;;;2.50;2.30;;;;;;;14.75;51.99;100770.09;4994833;28;20414;-79
2022/11/19 08:39:40;;;;;;;3.47;2.40;;;;;;;14.76;52.22;100777.06;4995728;28;20388;-78
2022/11/19 08:44:53;;;;;;;4.65;3.33;;;;;;;14.75;51.56;100788.75;4996695;28;20380;-79
2022/11/19 08:47:19;;;;;;;3.75;3.05;;;;;;;14.91;51.74;100796.47;4995332;28;20952;-80
2022/11/19 08:49:44;;;;;;;3.30;2.70;;;;;;;14.94;51.95;100795.22;4995665;28;20551;-80
2022/11/19 08:52:10;;;;;;;3.47;2.97;;;;;;;14.99;51.12;100822.16;4994653;28;20398;-79
2022/11/19 08:54:35;;;;;;;10.50;7.87;;;;;;;15.05;51.47;100820.53;4997513;28;20404;-78
2022/11/19 08:57:01;;;;;;;4.83;3.73;;;;;;;14.94;50.05;100823.78;4994090;28;20477;-80
2022/11/19 08:59:26;;;;;;;9.02;5.63;;;;;;;14.75;49.72;100815.44;4985816;28;20417;-78
2022/11/19 09:01:52;;;;;;;10.90;6.80;;;;;;;14.55;50.00;100815.28;4997761;28;20389;-79
2022/11/19 09:04:17;;;;;;;2.55;2.35;;;;;;;14.76;50.07;100811.75;4991514;28;20480;-79
2022/11/19 09:06:43;;;;;;;19.17;9.03;;;;;;;14.62;49.72;100807.34;4970977;28;20804;-78
2022/11/19 09:09:08;;;;;;;4.00;2.55;;;;;;;14.60;49.91;100804.03;4979718;28;20446;-79
2022/11/19 09:11:34;;;;;;;8.83;4.20;;;;;;;14.76;49.71;100808.25;4985472;28;20417;-78
2022/11/19 09:14:00;;;;;;;7.95;4.32;;;;;;;14.72;49.42;100808.63;4987130;28;20397;-80
2022/11/19 09:16:25;;;;;;;13.20;5.50;;;;;;;14.85;49.63;100815.09;4986194;28;20385;-78
2022/11/19 09:18:51;;;;;;;7.20;4.07;;;;;;;14.97;51.04;100826.88;4983497;28;20398;-77
2022/11/19 09:21:17;;;;;;;16.48;8.18;;;;;;;15.06;49.73;100831.03;4977840;28;20759;-79
2022/11/19 09:23:42;;;;;;;10.43;5.00;;;;;;;15.18;49.20;100823.31;4979416;28;20386;-80
2022/11/19 09:26:14;;;;;;;12.88;6.80;;;;;;;15.06;50.09;100816.88;4962063;28;20391;-79
2022/11/19 09:28:40;;;;;;;3.13;2.60;;;;;;;15.21;49.59;100814.88;4977731;28;20388;-80
2022/11/19 09:31:13;;;;;;;5.80;2.63;;;;;;;15.14;49.04;100816.69;4975633;28;20383;-79
2022/11/19 09:33:43;;;;;;;5.65;2.80;;;;;;;15.12;49.05;100815.25;4976962;28;20462;-79
2022/11/19 09:36:10;;;;;;;9.63;3.80;;;;;;;15.12;49.08;100807.25;4976723;28;20423;-78
2022/11/19 09:38:35;;;;;;;11.82;4.65;;;;;;;15.32;49.70;100802.00;4977204;28;20391;-80
2022/11/19 09:41:16;;;;;;;5.72;2.85;;;;;;;15.00;48.58;100794.47;4976643;28;20465;-81
2022/11/19 09:43:53;;;;;;;9.20;4.63;;;;;;;15.04;48.88;100786.88;4976513;28;20390;-81
2022/11/19 09:46:21;;;;;;;5.53;3.45;;;;;;;15.05;48.63;100785.84;4978085;28;20397;-78
2022/11/19 09:48:51;;;;;;;3.33;2.33;;;;;;;14.85;49.07;100772.38;4978201;28;20394;-79
2022/11/19 09:51:22;;;;;;;3.93;2.40;;;;;;;14.90;48.91;100765.44;4961759;28;20390;-79
2022/11/19 09:53:56;;;;;;;2.90;1.88;;;;;;;15.09;48.26;100750.56;4977073;28;20422;-78
2022/11/19 09:56:26;;;;;;;3.23;1.73;;;;;;;15.12;48.33;100751.16;4980078;28;20392;-80
2022/11/19 09:58:54;;;;;;;1.50;1.40;;;;;;;14.86;48.03;100764.19;4977788;28;20740;-79
2022/11/19 10:01:19;;;;;;;3.70;1.63;;;;;;;14.88;48.18;100772.00;4977963;28;20384;-80
2022/11/19 10:03:49;;;;;;;1.87;1.77;;;;;;;15.26;48.20;100769.72;4988482;28;20418;-79
2022/11/19 10:06:20;;;;;;;2.40;1.40;;;;;;;15.47;47.26;100787.47;4995874;28;20378;-79
2022/11/19 10:09:28;;;;;;;1.80;1.23;;;;;;;15.55;46.62;100775.78;4994583;28;20405;-82
2022/11/19 10:12:02;;;;;;;1.90;1.30;;;;;;;15.48;46.52;100769.59;4995374;28;20362;-78
2022/11/19 10:14:46;;;;;;;1.80;1.30;;;;;;;15.65;46.55;100746.00;4996254;28;20385;-83
2022/11/19 10:17:31;;;;;;;1.65;1.50;;;;;;;16.01;46.24;100752.88;4994851;28;20460;-81
2022/11/19 10:20:18;;;;;;;1.40;1.30;;;;;;;15.99;45.85;100768.25;4997048;28;20377;-80
2022/11/19 10:26:03;;;;;;;2.00;1.50;;;;;;;16.24;45.25;100760.47;4996324;28;20422;-80
2022/11/19 10:28:34;;;;;;;1.45;1.35;;;;;;;16.14;45.11;100762.75;4996710;28;20746;-79
2022/11/19 10:31:24;;;;;;;2.10;1.30;;;;;;;16.38;45.23;100754.06;4995709;28;20401;-79
2022/11/19 10:34:09;;;;;;;2.47;1.27;;;;;;;16.34;44.84;100750.19;4995399;28;20497;-80
2022/11/19 10:36:43;;;;;;;3.00;1.42;;;;;;;16.26;44.58;100753.06;4997002;28;20400;-79
2022/11/19 10:39:19;;;;;;;4.60;1.67;;;;;;;16.31;44.81;100734.53;4996581;28;20400;-80
2022/11/19 10:41:56;;;;;;;2.80;1.60;;;;;;;16.37;44.32;100744.41;4997032;28;20386;-80
2022/11/19 10:44:39;;;;;;;2.57;1.00;;;;;;;16.08;43.55;100751.03;4994287;28;20477;-80
2022/11/19 10:47:10;;;;;;;1.73;1.50;;;;;;;16.19;43.76;100736.22;4995781;28;20389;-80
2022/11/19 10:49:40;;;;;;;2.92;2.03;;;;;;;16.25;43.99;100748.75;4994966;28;20458;-80
2022/11/19 10:52:24;;;;;;;3.92;1.90;;;;;;;16.34;43.91;100755.53;4995733;28;20422;-80
2022/11/19 10:54:55;;;;;;;2.75;2.05;;;;;;;16.43;43.75;100746.25;4998348;28;20870;-80
2022/11/19 10:57:22;;;;;;;2.67;1.87;;;;;;;16.29;43.02;100751.81;4979526;28;20382;-79
2022/11/19 10:59:51;;;;;;;4.07;2.17;;;;;;;16.30;43.05;100748.13;4996716;28;20386;-79
2022/11/19 11:02:32;;;;;;;3.47;1.98;;;;;;;16.43;43.14;100754.28;4978671;28;20455;-80
2022/11/19 11:05:09;;;;;;;3.20;1.40;;;;;;;16.14;42.82;100760.06;4995501;28;20732;-81
2022/11/19 11:07:55;;;;;;;1.60;1.20;;;;;;;16.13;42.51;100766.44;4995092;28;20406;-80
2022/11/19 11:10:43;;;;;;;1.40;1.30;;;;;;;16.17;43.20;100756.97;4997846;28;20381;-81
2022/11/19 11:16:26;;;;;;;2.40;1.65;;;;;;;16.09;42.83;100758.00;4994163;28;20465;-79
2022/11/19 11:18:56;;;;;;;7.55;5.53;;;;;;;16.12;43.11;100756.78;4978448;28;20468;-82
2022/11/19 11:21:35;;;;;;;4.23;2.60;;;;;;;16.39;43.12;100754.91;4993213;28;20390;-80
2022/11/19 11:24:03;;;;;;;2.60;2.00;;;;;;;16.53;42.73;100759.22;4976060;28;20381;-81
2022/11/19 11:26:32;;;;;;;2.15;1.70;;;;;;;16.25;42.88;100754.09;4993087;28;20404;-80
2022/11/19 11:29:24;;;;;;;1.35;1.10;;;;;;;16.09;42.03;100751.84;4976859;28;20389;-81
2022/11/19 11:31:50;;;;;;;2.85;2.10;;;;;;;16.05;42.04;100741.53;4991743;28;20476;-80
2022/11/19 11:34:24;;;;;;;4.78;2.80;;;;;;;16.11;42.08;100721.16;4976445;28;20489;-80
2022/11/19 11:36:50;;;;;;;8.55;4.65;;;;;;;16.31;42.20;100729.19;4992400;28;20879;-80
2022/11/19 11:39:25;;;;;;;2.80;1.75;;;;;;;16.41;42.48;100742.97;4975642;28;20417;-80
2022/11/19 11:41:51;;;;;;;7.10;3.97;;;;;;;16.44;43.14;100739.88;4991721;28;20390;-81
2022/11/19 11:44:22;;;;;;;8.80;4.60;;;;;;;16.29;42.93;100736.59;4991175;28;20778;-79
2022/11/19 11:47:01;;;;;;;7.57;4.05;;;;;;;16.31;42.90;100734.53;4966771;28;20425;-79
2022/11/19 11:49:36;;;;;;;2.30;1.48;;;;;;;16.21;42.34;100724.25;4976629;28;20394;-79
2022/11/19 11:52:10;;;;;;;7.70;3.45;;;;;;;16.26;42.61;100742.38;4992769;28;20386;-81
2022/11/19 11:54:52;;;;;;;14.10;6.05;;;;;;;16.28;42.55;100734.97;4995211;28;20476;-80
2022/11/19 11:57:22;;;;;;;15.98;7.97;;;;;;;16.35;42.71;100741.13;4994497;28;20386;-80
2022/11/19 11:59:47;;;;;;;3.63;2.23;;;;;;;16.33;42.49;100756.56;4988273;28;20534;-79